Time;durP1;ratioP1;P1;durP2;ratioP2;P2;SDS_P1;SDS_P2;PMS_P1;PMS_P2;Temp;Humidity;BMP_temperature;BMP_pressure;BME280_temperature;BME280_humidity;BME280_pressure;Samples;Min_cycle;Max_cycle;Signal;HPM_P1;HPM_P2
2022/11/03 00:01:39;;;;;;;20.08;2.92;;;7.90;99.90;;;;;;5085083;28;20036;-64
2022/11/03 00:04:07;;;;;;;7.93;1.80;;;7.90;99.90;;;;;;5082718;28;20040;-64
2022/11/03 00:06:33;;;;;;;11.15;2.25;;;8.00;99.90;;;;;;5086170;28;20044;-64
2022/11/03 00:09:01;;;;;;;12.10;2.22;;;8.00;99.90;;;;;;5083510;28;20036;-64
2022/11/03 00:11:27;;;;;;;16.63;2.45;;;8.10;99.90;;;;;;5066546;28;20037;-65
2022/11/03 00:13:53;;;;;;;;;;;8.10;99.90;;;;;;5084602;28;20042;-64
2022/11/03 00:16:19;;;;;;;14.00;2.88;;;8.10;99.90;;;;;;5082106;28;19942;-64
2022/11/03 00:18:45;;;;;;;11.80;2.25;;;8.20;99.90;;;;;;5071373;28;20512;-64
2022/11/03 00:21:12;;;;;;;;;;;8.30;99.90;;;;;;5071905;28;20384;-64
2022/11/03 00:23:40;;;;;;;9.25;2.00;;;8.30;99.90;;;;;;5076290;28;20331;-64
2022/11/03 00:26:19;;;;;;;14.05;2.10;;;8.40;99.90;;;;;;5074868;28;20076;-63
2022/11/03 00:28:46;;;;;;;11.15;2.15;;;8.40;99.90;;;;;;5053632;28;20561;-63
2022/11/03 00:31:30;;;;;;;14.35;2.83;;;8.50;99.90;;;;;;5070063;28;20044;-65
2022/11/03 00:33:57;;;;;;;15.48;2.15;;;8.50;99.90;;;;;;5072295;28;20109;-64
2022/11/03 00:36:35;;;;;;;8.77;1.75;;;8.50;99.90;;;;;;5071855;28;20046;-64
2022/11/03 00:39:02;;;;;;;19.27;2.85;;;8.50;99.90;;;;;;5057129;28;20119;-64
2022/11/03 00:41:28;;;;;;;13.80;2.60;;;8.60;99.90;;;;;;5070748;28;20048;-65
2022/11/03 00:43:54;;;;;;;;;;;8.60;99.90;;;;;;5075829;28;20032;-65
2022/11/03 00:46:21;;;;;;;14.32;2.13;;;8.70;99.90;;;;;;5068954;28;19936;-65
2022/11/03 00:48:47;;;;;;;10.65;2.50;;;8.70;99.90;;;;;;5074120;28;20408;-65
2022/11/03 00:51:18;;;;;;;;;;;8.70;99.90;;;;;;5072332;28;20046;-64
2022/11/03 00:53:46;;;;;;;20.08;2.47;;;8.70;99.90;;;;;;5074491;28;20552;-64
2022/11/03 00:56:14;;;;;;;12.35;2.03;;;8.70;99.90;;;;;;5078764;28;20043;-65
2022/11/03 00:58:41;;;;;;;8.10;1.90;;;8.70;99.90;;;;;;5075105;28;20471;-65
2022/11/03 01:01:15;;;;;;;9.32;2.35;;;8.70;99.90;;;;;;5070206;28;20829;-64
2022/11/03 01:06:49;;;;;;;8.77;1.83;;;8.70;99.90;;;;;;5048134;28;20058;-65
2022/11/03 01:09:18;;;;;;;15.52;2.10;;;8.70;99.90;;;;;;5073965;28;20114;-65
2022/11/03 01:12:03;;;;;;;22.75;3.13;;;8.70;99.90;;;;;;5070475;28;20126;-64
2022/11/03 01:14:31;;;;;;;13.38;2.45;;;8.70;99.90;;;;;;5074352;28;20678;-65
2022/11/03 01:16:57;;;;;;;15.10;2.08;;;8.80;99.90;;;;;;5072242;28;20124;-64
2022/11/03 01:19:22;;;;;;;;;;;8.80;99.90;;;;;;5056882;28;20084;-65
2022/11/03 01:21:48;;;;;;;10.23;2.33;;;8.80;99.90;;;;;;5071021;28;20096;-64
2022/11/03 01:24:14;;;;;;;;;;;8.80;99.90;;;;;;5067840;28;20139;-65
2022/11/03 01:26:39;;;;;;;16.35;2.33;;;8.80;99.90;;;;;;5070507;28;20003;-63
2022/11/03 01:29:05;;;;;;;;;;;8.80;99.90;;;;;;5074089;28;20040;-63
2022/11/03 01:31:31;;;;;;;10.40;2.08;;;8.80;99.90;;;;;;5069991;28;20065;-63
2022/11/03 01:33:56;;;;;;;;;;;8.90;99.90;;;;;;5075397;28;20037;-64
2022/11/03 01:36:23;;;;;;;12.18;2.42;;;8.90;99.90;;;;;;5071143;28;20029;-64
2022/11/03 01:38:49;;;;;;;20.52;2.45;;;8.90;99.90;;;;;;5065199;28;20119;-64
2022/11/03 01:41:19;;;;;;;8.65;1.55;;;8.90;99.90;;;;;;5069771;28;20090;-63
2022/11/03 01:43:49;;;;;;;12.18;2.42;;;8.90;99.90;;;;;;5050356;28;20531;-63
2022/11/03 01:46:23;;;;;;;17.73;2.10;;;8.90;99.90;;;;;;5071357;28;20173;-63
2022/11/03 01:48:58;;;;;;;18.13;2.20;;;8.90;99.90;;;;;;5073733;28;20123;-65
2022/11/03 01:51:28;;;;;;;16.95;2.60;;;8.90;99.90;;;;;;5053399;28;20052;-63
2022/11/03 01:53:57;;;;;;;13.27;2.72;;;9.00;99.90;;;;;;5072905;28;20075;-63
2022/11/03 01:56:24;;;;;;;13.23;3.00;;;9.00;99.90;;;;;;5052572;28;20058;-64
2022/11/03 01:58:53;;;;;;;17.50;3.47;;;9.10;99.90;;;;;;5056295;28;20483;-63
2022/11/03 02:01:19;;;;;;;15.63;2.67;;;9.10;99.90;;;;;;5052643;28;20040;-63
2022/11/03 02:03:53;;;;;;;15.05;2.72;;;9.10;99.90;;;;;;5055808;28;20043;-63
2022/11/03 02:06:22;;;;;;;16.08;2.22;;;9.10;99.90;;;;;;5068474;28;20403;-63
2022/11/03 02:09:00;;;;;;;13.32;2.75;;;9.10;99.90;;;;;;5072688;28;20039;-63
2022/11/03 02:14:14;;;;;;;13.07;2.50;;;9.10;99.90;;;;;;5076798;28;20380;-64
2022/11/03 02:16:44;;;;;;;16.17;3.42;;;9.10;99.90;;;;;;5070066;28;20040;-64
2022/11/03 02:19:26;;;;;;;11.05;2.78;;;9.10;99.90;;;;;;5072548;28;20037;-64
2022/11/03 02:21:58;;;;;;;17.80;2.63;;;9.10;99.90;;;;;;5070031;28;20045;-63
2022/11/03 02:24:51;;;;;;;8.35;1.83;;;9.10;99.90;;;;;;5071218;28;20871;-63
2022/11/03 02:27:17;;;;;;;11.93;2.50;;;9.10;99.90;;;;;;5072350;28;20036;-63
2022/11/03 02:29:43;;;;;;;14.63;2.67;;;9.10;99.90;;;;;;5054989;28;20496;-64
2022/11/03 02:32:27;;;;;;;;;;;9.10;99.90;;;;;;5051232;28;20039;-64
2022/11/03 02:35:29;;;;;;;9.55;2.15;;;9.10;99.90;;;;;;5069998;28;19924;-63
2022/11/03 02:37:59;;;;;;;15.00;2.45;;;9.10;99.90;;;;;;5054441;28;20586;-63
2022/11/03 02:40:40;;;;;;;12.48;2.35;;;9.10;99.90;;;;;;5066118;28;20045;-66
2022/11/03 02:43:08;;;;;;;9.98;2.50;;;9.10;99.90;;;;;;5069664;28;20115;-63
2022/11/03 02:45:34;;;;;;;12.68;2.58;;;9.10;99.90;;;;;;5065636;28;21017;-63
2022/11/03 02:48:01;;;;;;;;;;;9.10;99.90;;;;;;5076286;28;20059;-63
2022/11/03 02:50:29;;;;;;;7.50;2.33;;;9.10;99.90;;;;;;5066016;28;19926;-64
2022/11/03 02:52:55;;;;;;;13.60;2.67;;;9.10;99.90;;;;;;5070104;28;20043;-64
2022/11/03 02:55:33;;;;;;;;;;;9.10;99.90;;;;;;5067136;28;20040;-64
2022/11/03 02:58:10;;;;;;;10.48;2.13;;;9.10;99.90;;;;;;5067126;28;19942;-63
2022/11/03 03:00:52;;;;;;;16.05;2.50;;;9.10;99.90;;;;;;5064683;28;20806;-63
2022/11/03 03:03:25;;;;;;;13.88;2.30;;;9.10;99.90;;;;;;5073500;28;20380;-64
2022/11/03 03:05:56;;;;;;;14.68;2.42;;;9.10;99.90;;;;;;5069959;28;20044;-62
2022/11/03 03:08:24;;;;;;;13.45;2.45;;;9.10;99.90;;;;;;5071975;28;20356;-62
2022/11/03 03:10:50;;;;;;;13.20;2.30;;;9.10;99.90;;;;;;5067253;28;20634;-62
2022/11/03 03:13:19;;;;;;;9.95;2.40;;;9.10;99.90;;;;;;5056145;28;20552;-63
2022/11/03 03:16:24;;;;;;;13.75;2.65;;;9.10;99.90;;;;;;5065540;28;20040;-63
2022/11/03 03:18:59;;;;;;;11.15;1.77;;;9.00;99.90;;;;;;5067010;28;20044;-62
2022/11/03 03:21:31;;;;;;;9.68;2.08;;;9.00;99.90;;;;;;5066089;28;20068;-63
2022/11/03 03:24:01;;;;;;;13.27;2.42;;;9.00;99.90;;;;;;5068339;28;20792;-63
2022/11/03 03:26:45;;;;;;;11.20;2.35;;;9.00;99.90;;;;;;5048867;28;20189;-63
2022/11/03 03:29:16;;;;;;;16.48;2.35;;;9.00;99.90;;;;;;5072205;28;20036;-63
2022/11/03 03:31:46;;;;;;;15.80;3.35;;;9.00;99.90;;;;;;5060455;28;20139;-63
2022/11/03 03:34:15;;;;;;;8.05;2.08;;;9.00;99.90;;;;;;5072531;28;20606;-63
2022/11/03 03:36:44;;;;;;;8.10;2.00;;;9.00;99.90;;;;;;5066733;28;20411;-64
2022/11/03 03:39:12;;;;;;;9.40;2.13;;;8.90;99.90;;;;;;5059509;28;20446;-64
2022/11/03 03:41:39;;;;;;;12.00;1.92;;;8.90;99.90;;;;;;5068446;28;20029;-64
2022/11/03 03:44:08;;;;;;;18.40;2.60;;;8.90;99.90;;;;;;5071726;28;20044;-63
2022/11/03 03:46:39;;;;;;;10.10;2.58;;;8.80;99.90;;;;;;5070542;28;20056;-63
2022/11/03 03:49:05;;;;;;;10.68;2.10;;;8.80;99.90;;;;;;5072003;28;20111;-65
2022/11/03 03:51:33;;;;;;;14.57;2.28;;;8.80;99.90;;;;;;5069450;28;20045;-63
2022/11/03 03:53:58;;;;;;;14.82;2.53;;;8.70;99.90;;;;;;5075281;28;20032;-63
2022/11/03 03:56:44;;;;;;;;;;;8.70;99.90;;;;;;5073824;28;20040;-64
2022/11/03 03:59:10;;;;;;;13.50;1.90;;;8.70;99.90;;;;;;5076184;28;19916;-63
2022/11/03 04:01:36;;;;;;;;;;;8.60;99.90;;;;;;5071267;28;20388;-63
2022/11/03 04:04:01;;;;;;;7.38;1.95;;;8.50;99.90;;;;;;5075494;28;19955;-64
2022/11/03 04:06:27;;;;;;;;;;;8.50;99.90;;;;;;5068842;28;20538;-64
2022/11/03 04:08:52;;;;;;;16.05;2.55;;;8.50;99.90;;;;;;5075210;28;19924;-64
2022/11/03 04:22:16;;;;;;;13.25;2.70;;;8.50;99.90;;;;;;5072789;28;20527;-63
2022/11/03 04:24:47;;;;;;;12.27;2.28;;;8.40;99.90;;;;;;5074296;28;20037;-63
2022/11/03 04:27:32;;;;;;;9.68;2.30;;;8.40;99.90;;;;;;5073099;28;20047;-64
2022/11/03 04:30:19;;;;;;;7.95;2.20;;;8.30;99.90;;;;;;5054644;28;20493;-64
2022/11/03 04:32:50;;;;;;;13.00;3.25;;;8.30;99.90;;;;;;5073980;28;20044;-63
2022/11/03 04:35:22;;;;;;;15.50;2.50;;;8.40;99.90;;;;;;5070161;28;20033;-63
2022/11/03 04:37:58;;;;;;;19.90;2.65;;;8.40;99.90;;;;;;5076576;28;20044;-63
2022/11/03 04:40:24;;;;;;;16.08;2.63;;;8.40;99.90;;;;;;5069084;28;20035;-63
2022/11/03 04:42:50;;;;;;;17.42;2.60;;;8.40;99.90;;;;;;5074964;28;20069;-63
2022/11/03 04:45:29;;;;;;;;;;;8.40;99.90;;;;;;5070178;28;20111;-64
2022/11/03 04:47:57;;;;;;;16.50;3.03;;;8.40;99.90;;;;;;5077714;28;19930;-64
2022/11/03 04:50:23;;;;;;;15.00;2.35;;;8.40;99.90;;;;;;5068192;28;20146;-63
2022/11/03 04:52:57;;;;;;;12.10;2.28;;;8.40;99.90;;;;;;5071269;28;20075;-65
2022/11/03 04:55:23;;;;;;;9.90;2.42;;;8.40;99.90;;;;;;5082910;28;20080;-63
2022/11/03 04:57:56;;;;;;;12.43;2.60;;;8.40;99.90;;;;;;5071876;28;20036;-63
2022/11/03 05:00:22;;;;;;;19.27;4.13;;;8.40;99.90;;;;;;5048468;28;20044;-64
2022/11/03 05:02:49;;;;;;;;;;;8.40;99.90;;;;;;5071764;28;20085;-63
2022/11/03 05:05:25;;;;;;;13.55;2.42;;;8.40;99.90;;;;;;5067427;28;19928;-63
2022/11/03 05:07:53;;;;;;;11.73;2.55;;;8.40;99.90;;;;;;5071972;28;20071;-64
2022/11/03 05:10:23;;;;;;;17.73;2.90;;;8.40;99.90;;;;;;5065954;28;20528;-64
2022/11/03 05:12:50;;;;;;;15.32;3.10;;;8.30;99.90;;;;;;5073480;28;20079;-63
2022/11/03 05:15:33;;;;;;;16.77;3.00;;;8.30;99.90;;;;;;5066190;28;20083;-63
2022/11/03 05:18:03;;;;;;;9.93;2.42;;;8.40;99.90;;;;;;5065934;28;20036;-63
2022/11/03 05:20:35;;;;;;;16.02;2.60;;;8.40;99.90;;;;;;5067328;28;20060;-64
2022/11/03 05:23:03;;;;;;;10.32;2.28;;;8.40;99.90;;;;;;5049072;28;20044;-63
2022/11/03 05:25:39;;;;;;;18.00;2.95;;;8.40;99.90;;;;;;5082497;28;20768;-63
2022/11/03 05:28:14;;;;;;;14.43;2.95;;;8.40;99.90;;;;;;5050426;28;20054;-64
2022/11/03 05:30:40;;;;;;;11.50;2.22;;;8.40;99.90;;;;;;5072407;28;20091;-63
2022/11/03 05:33:24;;;;;;;;;;;8.40;99.90;;;;;;5074896;28;20496;-63
2022/11/03 05:35:50;;;;;;;11.13;2.15;;;8.40;99.90;;;;;;5069269;28;19916;-64
2022/11/03 05:38:17;;;;;;;;;;;8.40;99.90;;;;;;5075322;28;20615;-64
2022/11/03 05:40:43;;;;;;;11.30;2.60;;;8.30;99.90;;;;;;5068019;28;20407;-64
2022/11/03 05:43:11;;;;;;;;;;;8.40;99.90;;;;;;5075978;28;20067;-63
2022/11/03 05:45:37;;;;;;;9.18;2.75;;;8.40;99.90;;;;;;5065733;28;19923;-64
2022/11/03 05:48:17;;;;;;;11.23;2.85;;;8.30;99.90;;;;;;5069192;28;20040;-63
2022/11/03 05:50:43;;;;;;;14.65;2.78;;;8.30;99.90;;;;;;5073873;28;20550;-64
2022/11/03 05:53:14;;;;;;;15.30;2.75;;;8.30;99.90;;;;;;5068107;28;20440;-62
2022/11/03 05:55:42;;;;;;;11.73;2.10;;;8.30;99.90;;;;;;5068310;28;20060;-63
2022/11/03 05:58:36;;;;;;;16.35;2.97;;;8.40;99.90;;;;;;5067110;28;20420;-63
2022/11/03 06:01:11;;;;;;;12.15;2.65;;;8.40;99.90;;;;;;5054728;28;20105;-64
2022/11/03 06:03:37;;;;;;;12.45;2.78;;;8.40;99.90;;;;;;5044398;28;20056;-64
2022/11/03 06:06:18;;;;;;;13.18;2.55;;;8.40;99.90;;;;;;5031676;28;20051;-63
2022/11/03 06:08:44;;;;;;;16.45;3.05;;;8.40;99.90;;;;;;5043002;28;20550;-64
2022/11/03 06:11:15;;;;;;;;;;;8.40;99.90;;;;;;5049834;28;20045;-63
2022/11/03 06:13:40;;;;;;;17.23;3.33;;;8.40;99.90;;;;;;5045576;28;19928;-64
2022/11/03 06:16:09;;;;;;;;;;;8.40;99.90;;;;;;5050138;28;20138;-64
2022/11/03 06:18:36;;;;;;;12.88;3.38;;;8.30;99.90;;;;;;5052362;28;20292;-63
2022/11/03 06:21:08;;;;;;;15.23;2.85;;;8.30;99.90;;;;;;5026422;28;20040;-63
2022/11/03 06:23:35;;;;;;;13.43;2.65;;;8.30;99.90;;;;;;5039250;28;20445;-63
2022/11/03 06:26:02;;;;;;;16.33;2.88;;;8.20;99.90;;;;;;5049750;28;20037;-64
2022/11/03 06:28:35;;;;;;;8.80;2.25;;;8.20;99.90;;;;;;5049441;28;20108;-63
2022/11/03 06:31:03;;;;;;;11.55;2.53;;;8.20;99.90;;;;;;5046172;28;20094;-64
2022/11/03 06:33:35;;;;;;;8.25;2.58;;;8.20;99.90;;;;;;5035230;28;20051;-65
2022/11/03 06:36:19;;;;;;;11.52;2.75;;;8.20;99.90;;;;;;5046815;28;20086;-63
2022/11/03 06:38:59;;;;;;;15.52;3.20;;;8.20;99.90;;;;;;5030203;28;20048;-64
2022/11/03 06:41:28;;;;;;;14.75;3.30;;;8.20;99.90;;;;;;5044508;28;20052;-63
2022/11/03 06:43:55;;;;;;;11.73;2.83;;;8.20;99.90;;;;;;5036782;28;20036;-63
2022/11/03 06:46:23;;;;;;;14.75;2.72;;;8.10;99.90;;;;;;5048324;28;20138;-63
2022/11/03 06:48:51;;;;;;;16.02;2.67;;;8.20;99.90;;;;;;5052748;28;20047;-64
2022/11/03 06:51:22;;;;;;;15.20;3.33;;;8.20;99.90;;;;;;5033376;28;20040;-64
2022/11/03 06:53:50;;;;;;;14.40;3.13;;;8.20;99.90;;;;;;5050483;28;20059;-64
2022/11/03 06:56:20;;;;;;;21.40;3.20;;;8.30;99.90;;;;;;5042946;28;20045;-64
2022/11/03 06:58:48;;;;;;;9.68;2.60;;;8.40;99.90;;;;;;5040220;28;20476;-64
2022/11/03 07:01:28;;;;;;;19.70;2.65;;;8.40;99.90;;;;;;5045011;28;20066;-65
2022/11/03 07:04:18;;;;;;;12.82;3.00;;;8.40;99.90;;;;;;5058052;28;20484;-66
2022/11/03 07:06:46;;;;;;;15.13;2.90;;;8.40;99.90;;;;;;5047440;28;20066;-64
2022/11/03 07:09:29;;;;;;;9.93;2.53;;;8.40;99.90;;;;;;5051831;28;20045;-64
2022/11/03 07:11:58;;;;;;;13.90;2.65;;;8.50;99.90;;;;;;5043046;28;20044;-65
2022/11/03 07:14:26;;;;;;;13.02;2.42;;;8.50;99.90;;;;;;5051615;28;20127;-64
2022/11/03 07:16:56;;;;;;;10.27;2.47;;;8.50;99.90;;;;;;5035190;28;20045;-64
2022/11/03 07:19:42;;;;;;;10.32;2.10;;;8.50;99.90;;;;;;5033969;28;20049;-63
2022/11/03 07:22:18;;;;;;;12.90;4.05;;;8.50;99.90;;;;;;5047072;28;20421;-65
2022/11/03 07:24:46;;;;;;;11.52;2.90;;;8.70;99.90;;;;;;5063647;28;20531;-66
2022/11/03 07:27:24;;;;;;;11.40;2.92;;;8.70;99.90;;;;;;5032762;28;20768;-63
2022/11/03 07:29:50;;;;;;;16.98;3.10;;;8.80;99.90;;;;;;5053671;28;20041;-63
2022/11/03 07:32:20;;;;;;;14.73;2.30;;;8.90;99.90;;;;;;5052476;28;20037;-64
2022/11/03 07:34:47;;;;;;;11.95;2.40;;;9.00;99.90;;;;;;5054358;28;20048;-63
2022/11/03 07:37:20;;;;;;;9.90;2.22;;;9.10;99.90;;;;;;5053762;28;20503;-64
2022/11/03 07:39:45;;;;;;;5.90;2.00;;;9.20;99.90;;;;;;5053452;28;20512;-63
2022/11/03 07:42:17;;;;;;;;;;;9.30;99.90;;;;;;5055395;28;20033;-64
2022/11/03 07:44:43;;;;;;;6.35;2.30;;;9.30;99.90;;;;;;5055717;28;19924;-63
2022/11/03 07:47:27;;;;;;;;;;;9.50;99.90;;;;;;5035384;28;20052;-64
2022/11/03 07:49:54;;;;;;;13.38;2.45;;;9.50;99.90;;;;;;5052474;28;19920;-63
2022/11/03 07:52:23;;;;;;;10.35;2.50;;;9.60;99.90;;;;;;5050587;28;20048;-65
2022/11/03 07:54:51;;;;;;;11.27;2.38;;;9.70;99.90;;;;;;5067946;28;20078;-63
2022/11/03 07:57:26;;;;;;;10.65;2.38;;;9.70;99.90;;;;;;5051896;28;20048;-63
2022/11/03 08:00:08;;;;;;;11.52;2.25;;;9.90;99.90;;;;;;5058949;28;20112;-62
2022/11/03 08:03:03;;;;;;;14.32;2.85;;;10.10;99.90;;;;;;5054975;28;20040;-64
2022/11/03 08:05:28;;;;;;;10.15;2.25;;;10.20;99.90;;;;;;5046235;28;20045;-63
2022/11/03 08:07:54;;;;;;;;;;;10.30;99.90;;;;;;5058269;28;20039;-63
2022/11/03 08:10:20;;;;;;;13.93;2.53;;;10.50;99.90;;;;;;5048905;28;20011;-64
2022/11/03 08:12:45;;;;;;;;;;;10.60;99.90;;;;;;5056554;28;20040;-63
2022/11/03 08:15:11;;;;;;;9.23;1.85;;;10.60;99.90;;;;;;5051093;28;19999;-63
2022/11/03 08:17:36;;;;;;;;;;;10.70;99.90;;;;;;5032342;28;20415;-64
2022/11/03 08:20:02;;;;;;;7.60;1.95;;;10.70;99.90;;;;;;5051796;28;20058;-63
2022/11/03 08:22:28;;;;;;;;;;;10.70;99.90;;;;;;5034501;28;20471;-63
2022/11/03 08:24:54;;;;;;;8.55;2.60;;;10.70;99.90;;;;;;5066728;28;20377;-64
2022/11/03 08:27:19;;;;;;;;;;;10.70;99.90;;;;;;5052646;28;20120;-63
2022/11/03 08:29:45;;;;;;;13.32;2.20;;;10.70;99.90;;;;;;5053860;28;20391;-63
2022/11/03 08:32:11;;;;;;;;;;;10.70;99.90;;;;;;5050634;28;20037;-63
2022/11/03 08:34:37;;;;;;;9.40;1.83;;;10.60;99.90;;;;;;5055311;28;19925;-64
2022/11/03 08:37:02;;;;;;;;;;;10.60;99.90;;;;;;5051932;28;20041;-64
2022/11/03 08:39:30;;;;;;;16.80;5.50;;;10.40;99.90;;;;;;5054865;28;19924;-64
2022/11/03 08:41:55;;;;;;;11.35;4.20;;;10.00;99.90;;;;;;5051404;28;20048;-65
2022/11/03 08:44:21;;;;;;;;;;;9.70;99.90;;;;;;5055762;28;20033;-63
2022/11/03 08:46:47;;;;;;;14.48;4.45;;;9.70;99.90;;;;;;5051960;28;20281;-64
2022/11/03 08:49:12;;;;;;;;;;;9.60;99.90;;;;;;5055316;28;20404;-63
2022/11/03 08:51:38;;;;;;;9.23;4.30;;;9.60;99.90;;;;;;5051590;28;19921;-64
2022/11/03 08:54:03;;;;;;;;;;;9.60;99.90;;;;;;5048634;28;20037;-63
2022/11/03 08:56:29;;;;;;;11.02;5.30;;;9.50;99.90;;;;;;5051778;28;19998;-63
2022/11/03 08:58:55;;;;;;;11.85;4.60;;;9.50;99.90;;;;;;5054949;28;20212;-65
2022/11/03 09:01:20;;;;;;;;;;;9.40;99.90;;;;;;5033553;28;20064;-64
2022/11/03 09:03:46;;;;;;;15.40;5.18;;;9.30;99.90;;;;;;5054847;28;19939;-64
2022/11/03 09:06:11;;;;;;;;;;;9.40;99.90;;;;;;5052181;28;20084;-64
2022/11/03 09:08:37;;;;;;;15.25;4.13;;;9.50;99.90;;;;;;5054973;28;20402;-63
2022/11/03 09:11:02;;;;;;;;;;;9.60;99.90;;;;;;5051773;28;20090;-63
2022/11/03 09:13:28;;;;;;;9.38;4.25;;;9.70;99.90;;;;;;5055031;28;19921;-64
2022/11/03 09:15:54;;;;;;;;;;;9.80;99.90;;;;;;5032383;28;20117;-63
2022/11/03 09:18:21;;;;;;;12.73;4.75;;;9.80;99.90;;;;;;5056242;28;20365;-64
2022/11/03 09:20:46;;;;;;;10.32;4.22;;;9.90;99.90;;;;;;5049176;28;20123;-63
2022/11/03 09:23:12;;;;;;;;;;;10.10;99.90;;;;;;5056904;28;20120;-63
2022/11/03 09:25:37;;;;;;;10.23;5.05;;;10.20;99.90;;;;;;5063353;28;19927;-63
2022/11/03 09:28:03;;;;;;;;;;;10.10;99.90;;;;;;5057197;28;20112;-64
2022/11/03 09:30:29;;;;;;;14.38;4.80;;;10.30;99.90;;;;;;5046442;28;19916;-63
2022/11/03 09:32:54;;;;;;;;;;;10.30;99.90;;;;;;5054839;28;20060;-63
2022/11/03 09:35:20;;;;;;;9.32;4.00;;;10.40;99.90;;;;;;5053099;28;19920;-62
2022/11/03 09:37:46;;;;;;;;;;;10.50;99.90;;;;;;5053001;28;20476;-62
2022/11/03 09:40:15;;;;;;;8.85;4.10;;;10.60;99.90;;;;;;5048343;28;20722;-63
2022/11/03 09:42:41;;;;;;;13.85;4.72;;;10.60;99.90;;;;;;5049146;28;20037;-64
2022/11/03 09:45:08;;;;;;;17.00;5.30;;;10.50;99.90;;;;;;5054766;28;20064;-64
2022/11/03 09:47:37;;;;;;;9.43;5.05;;;10.60;99.90;;;;;;5048465;28;20775;-63
2022/11/03 09:50:05;;;;;;;10.88;4.60;;;10.70;99.90;;;;;;5043775;28;20033;-63
2022/11/03 09:52:32;;;;;;;9.55;4.32;;;10.70;99.90;;;;;;5049696;28;20041;-64
2022/11/03 09:54:58;;;;;;;14.82;4.90;;;10.70;99.90;;;;;;5041708;28;20076;-63
2022/11/03 09:57:27;;;;;;;15.57;5.55;;;10.70;99.90;;;;;;5042196;28;20436;-64
2022/11/03 09:59:54;;;;;;;11.50;5.43;;;10.60;99.90;;;;;;5044559;28;20036;-65
2022/11/03 10:02:30;;;;;;;14.27;5.15;;;10.60;99.90;;;;;;5050910;28;20051;-64
2022/11/03 10:05:01;;;;;;;13.43;5.20;;;10.60;99.90;;;;;;5040045;28;20408;-63
2022/11/03 10:07:29;;;;;;;14.68;5.15;;;10.60;99.90;;;;;;5034388;28;20048;-64
2022/11/03 10:09:58;;;;;;;20.25;5.43;;;10.50;99.90;;;;;;5044283;28;20133;-64
2022/11/03 10:12:25;;;;;;;14.27;5.32;;;10.50;99.90;;;;;;5032347;28;20040;-65
2022/11/03 10:14:52;;;;;;;9.95;4.55;;;10.40;99.90;;;;;;5029614;28;20098;-64
2022/11/03 10:17:27;;;;;;;16.88;5.20;;;10.50;99.90;;;;;;5049170;28;20045;-64
2022/11/03 10:19:55;;;;;;;10.00;4.38;;;10.50;99.90;;;;;;5046622;28;20037;-64
2022/11/03 10:22:21;;;;;;;10.40;4.20;;;10.60;99.90;;;;;;5047182;28;20041;-64
2022/11/03 10:24:48;;;;;;;15.52;5.40;;;10.60;99.90;;;;;;5050232;28;20033;-64
2022/11/03 10:27:24;;;;;;;7.97;3.60;;;10.70;99.90;;;;;;5043005;28;20037;-64
2022/11/03 10:30:11;;;;;;;9.88;3.83;;;10.80;99.90;;;;;;5039035;28;20668;-64
2022/11/03 10:32:37;;;;;;;12.77;4.55;;;10.90;99.90;;;;;;5040340;28;20041;-64
2022/11/03 10:35:22;;;;;;;;;;;10.80;99.90;;;;;;5054001;28;20584;-63
2022/11/03 10:37:48;;;;;;;15.82;3.63;;;10.80;99.90;;;;;;5053661;28;19916;-64
2022/11/03 10:40:35;;;;;;;;;;;10.80;99.90;;;;;;5046568;28;20515;-64
2022/11/03 10:43:00;;;;;;;10.48;3.70;;;10.90;99.90;;;;;;5049740;28;19978;-63
2022/11/03 10:45:26;;;;;;;;;;;10.80;99.90;;;;;;5041559;28;20041;-65
2022/11/03 10:48:00;;;;;;;11.30;3.70;;;10.80;99.90;;;;;;5045362;28;19924;-63
2022/11/03 10:50:27;;;;;;;21.92;5.32;;;10.80;99.90;;;;;;5040086;28;20105;-64
2022/11/03 10:52:53;;;;;;;14.23;4.75;;;10.80;99.90;;;;;;5051151;28;20041;-64
2022/11/03 10:55:21;;;;;;;13.13;5.05;;;10.80;99.90;;;;;;5045184;28;20120;-64
2022/11/03 10:57:48;;;;;;;12.07;3.60;;;10.80;99.90;;;;;;5053922;28;20447;-64
2022/11/03 11:00:16;;;;;;;16.75;3.83;;;10.90;99.90;;;;;;5047434;28;20040;-65
2022/11/03 11:02:47;;;;;;;10.15;3.72;;;10.90;99.90;;;;;;5018803;28;20092;-65
2022/11/03 11:05:31;;;;;;;14.27;3.80;;;11.00;99.90;;;;;;5045344;28;20071;-65
2022/11/03 11:07:58;;;;;;;11.13;3.58;;;10.90;99.90;;;;;;5056411;28;20048;-65
2022/11/03 11:10:26;;;;;;;12.20;3.03;;;11.00;99.90;;;;;;5025775;28;20039;-65
2022/11/03 11:13:20;;;;;;;13.48;3.15;;;11.10;99.90;;;;;;5056878;28;20044;-65
2022/11/03 11:15:52;;;;;;;11.02;3.50;;;11.10;99.90;;;;;;5035722;28;20051;-65
2022/11/03 11:18:41;;;;;;;11.00;3.05;;;11.20;99.90;;;;;;5061502;28;20036;-64
2022/11/03 11:21:18;;;;;;;13.05;2.70;;;11.20;99.90;;;;;;5040715;28;20037;-65
2022/11/03 11:23:46;;;;;;;14.02;3.05;;;11.30;99.90;;;;;;5049926;28;20393;-64
2022/11/03 11:26:23;;;;;;;9.15;2.58;;;11.30;99.90;;;;;;5048036;28;20048;-65
2022/11/03 11:29:07;;;;;;;9.32;3.20;;;11.30;99.90;;;;;;5045709;28;20120;-65
2022/11/03 11:31:33;;;;;;;13.23;3.33;;;11.30;99.90;;;;;;5055445;28;20497;-64
2022/11/03 11:34:08;;;;;;;12.38;2.65;;;11.30;99.90;;;;;;5057799;28;20457;-65
2022/11/03 11:36:38;;;;;;;11.95;3.13;;;11.40;99.90;;;;;;5053038;28;20501;-64
2022/11/03 11:39:10;;;;;;;12.07;3.22;;;11.40;99.90;;;;;;5051815;28;20037;-67
2022/11/03 11:42:12;;;;;;;7.10;2.97;;;11.50;99.90;;;;;;5054716;28;20378;-63
2022/11/03 11:47:46;;;;;;;8.60;3.15;;;11.20;99.90;;;;;;5031849;28;20045;-65
2022/11/03 11:50:14;;;;;;;9.60;2.92;;;11.10;99.90;;;;;;5038601;28;20098;-63
2022/11/03 11:52:44;;;;;;;11.60;3.33;;;11.10;99.90;;;;;;5040701;28;20041;-64
2022/11/03 11:55:24;;;;;;;10.50;3.20;;;11.10;99.90;;;;;;5039463;28;20033;-63
2022/11/03 11:57:51;;;;;;;13.15;3.30;;;11.10;99.90;;;;;;5039159;28;20056;-63
2022/11/03 12:00:28;;;;;;;5.95;2.67;;;11.00;99.90;;;;;;5038195;28;20076;-62
2022/11/03 12:02:55;;;;;;;9.23;2.97;;;10.90;99.90;;;;;;5042175;28;20444;-63
2022/11/03 12:05:27;;;;;;;11.27;3.10;;;10.90;99.90;;;;;;5040774;28;20099;-63
2022/11/03 12:07:53;;;;;;;8.35;2.90;;;11.00;99.90;;;;;;5040560;28;20669;-64
2022/11/03 12:10:25;;;;;;;7.82;2.70;;;11.10;99.90;;;;;;5038471;28;20041;-64
2022/11/03 12:12:52;;;;;;;14.80;3.50;;;11.10;99.90;;;;;;5040728;28;20101;-64
2022/11/03 12:15:53;;;;;;;14.80;3.50;;;11.10;99.90;;;;;;5031192;28;20038;-64
2022/11/03 12:18:33;;;;;;;9.93;2.95;;;10.90;99.90;;;;;;5026230;28;20037;-63
2022/11/03 12:21:00;;;;;;;11.40;3.00;;;11.00;99.90;;;;;;5046885;28;20032;-63
2022/11/03 12:23:38;;;;;;;15.30;2.80;;;11.10;99.90;;;;;;5041943;28;20048;-64
2022/11/03 12:26:04;;;;;;;11.07;3.55;;;11.00;99.90;;;;;;5044888;28;20049;-63
2022/11/03 12:28:39;;;;;;;;;;;11.10;99.90;;;;;;5055891;28;20037;-63
2022/11/03 12:31:04;;;;;;;14.48;4.05;;;11.10;99.90;;;;;;5050331;28;20496;-64
2022/11/03 12:33:30;;;;;;;;;;;11.10;99.90;;;;;;5057034;28;20068;-64
2022/11/03 12:35:56;;;;;;;8.77;3.42;;;11.00;99.90;;;;;;5051618;28;19918;-64
2022/11/03 12:38:22;;;;;;;;;;;11.00;99.90;;;;;;5050302;28;20040;-64
2022/11/03 12:40:48;;;;;;;17.47;3.23;;;11.00;99.90;;;;;;5050410;28;19967;-64
2022/11/03 12:43:13;;;;;;;;;;;11.00;99.90;;;;;;5057181;28;20271;-65
2022/11/03 12:45:40;;;;;;;8.95;2.83;;;11.00;99.90;;;;;;5049839;28;19921;-64
2022/11/03 12:48:07;;;;;;;6.85;3.17;;;11.00;99.90;;;;;;5058177;28;20068;-64
2022/11/03 12:50:33;;;;;;;12.27;3.47;;;11.00;99.90;;;;;;5047757;28;20078;-64
2022/11/03 12:52:59;;;;;;;9.18;2.92;;;11.00;99.90;;;;;;5058765;28;20124;-63
2022/11/03 12:55:24;;;;;;;;;;;11.00;99.90;;;;;;5067074;28;20131;-63
2022/11/03 12:57:50;;;;;;;12.90;2.92;;;11.00;99.90;;;;;;5054596;28;20351;-63
2022/11/03 13:00:16;;;;;;;16.55;3.97;;;11.00;99.90;;;;;;5049770;28;20029;-64
2022/11/03 13:02:42;;;;;;;8.50;2.72;;;11.10;99.90;;;;;;5053719;28;20049;-64
2022/11/03 13:05:08;;;;;;;;;;;11.10;99.90;;;;;;5051300;28;20033;-65
2022/11/03 13:07:33;;;;;;;11.52;2.90;;;11.20;99.90;;;;;;5056319;28;19924;-64
2022/11/03 13:09:59;;;;;;;;;;;11.40;99.90;;;;;;5052374;28;20593;-65
2022/11/03 13:12:30;;;;;;;13.82;2.47;;;11.60;99.90;;;;;;5053495;28;19966;-64
2022/11/03 13:14:58;;;;;;;14.07;2.58;;;11.70;99.90;;;;;;5052905;28;20107;-65
2022/11/03 13:17:24;;;;;;;8.93;3.17;;;11.80;99.90;;;;;;5050708;28;20056;-64
2022/11/03 13:19:50;;;;;;;12.75;3.83;;;11.80;99.90;;;;;;5052727;28;20140;-63
2022/11/03 13:22:15;;;;;;;;;;;11.80;99.90;;;;;;5048439;28;20179;-62
2022/11/03 13:24:41;;;;;;;10.73;3.05;;;11.80;99.90;;;;;;5053428;28;20015;-63
2022/11/03 13:27:07;;;;;;;;;;;11.80;99.90;;;;;;5051499;28;20465;-62
2022/11/03 13:29:33;;;;;;;7.55;2.20;;;11.80;99.90;;;;;;5052573;28;19916;-63
2022/11/03 13:31:59;;;;;;;;;;;11.80;99.90;;;;;;5046564;28;20067;-63
2022/11/03 13:34:25;;;;;;;6.25;2.08;;;11.80;99.90;;;;;;5014051;28;19916;-63
2022/11/03 13:36:50;;;;;;;;;;;11.80;99.90;;;;;;5050011;28;20044;-63